Time;durP1;ratioP1;P1;durP2;ratioP2;P2;SDS_P1;SDS_P2;PMS_P1;PMS_P2;Temp;Humidity;BMP_temperature;BMP_pressure;BME280_temperature;BME280_humidity;BME280_pressure;Samples;Min_cycle;Max_cycle;Signal;HPM_P1;HPM_P2
2021/01/10 00:00:14;;;;;;;23.60;18.35;;;0.50;92.80;;;;;;4996354;28;20042;-58
2021/01/10 00:02:41;;;;;;;26.92;17.15;;;0.50;92.80;;;;;;4996248;28;20709;-58
2021/01/10 00:05:12;;;;;;;23.83;16.63;;;0.50;92.80;;;;;;4996106;28;20045;-58
2021/01/10 00:07:38;;;;;;;21.63;16.35;;;0.30;92.90;;;;;;4996357;28;20133;-58
2021/01/10 00:10:11;;;;;;;24.27;16.08;;;0.30;93.10;;;;;;4996111;28;20126;-58
2021/01/10 00:12:37;;;;;;;19.95;14.98;;;0.40;93.20;;;;;;4995896;28;20488;-58
2021/01/10 00:15:05;;;;;;;21.67;15.85;;;0.50;93.00;;;;;;4995894;28;20047;-58
2021/01/10 00:17:31;;;;;;;18.67;12.32;;;0.40;92.90;;;;;;4996118;28;20392;-58
2021/01/10 00:19:56;;;;;;;15.23;11.23;;;0.60;93.50;;;;;;4995607;28;20113;-58
2021/01/10 00:22:23;;;;;;;13.80;9.52;;;0.60;93.20;;;;;;4995878;28;20484;-58
2021/01/10 00:24:50;;;;;;;17.23;12.57;;;0.60;93.20;;;;;;4995438;28;20481;-58
2021/01/10 00:27:20;;;;;;;17.08;11.77;;;0.70;92.70;;;;;;4995913;28;20049;-58
2021/01/10 00:29:47;;;;;;;15.98;12.32;;;0.60;92.40;;;;;;4996064;28;20046;-57
2021/01/10 00:32:13;;;;;;;12.70;9.18;;;0.60;92.50;;;;;;4995476;28;20038;-58
2021/01/10 00:34:40;;;;;;;15.55;9.73;;;0.60;92.70;;;;;;4995825;28;20451;-58
2021/01/10 00:37:13;;;;;;;13.60;9.07;;;0.60;92.70;;;;;;4995695;28;20050;-57
2021/01/10 00:39:40;;;;;;;12.40;9.15;;;0.60;92.70;;;;;;4995880;28;20057;-58
2021/01/10 00:42:11;;;;;;;12.50;8.60;;;0.40;92.70;;;;;;4995524;28;20069;-58
2021/01/10 00:44:40;;;;;;;14.02;9.10;;;0.30;92.40;;;;;;4995759;28;20129;-58
2021/01/10 00:47:07;;;;;;;14.98;8.02;;;0.30;92.60;;;;;;4995731;28;20133;-58
2021/01/10 00:49:34;;;;;;;13.85;10.00;;;0.20;92.70;;;;;;4995176;28;20122;-58
2021/01/10 00:52:00;;;;;;;11.93;7.55;;;0.20;92.80;;;;;;4995391;28;20563;-58
2021/01/10 00:54:27;;;;;;;14.10;9.00;;;0.10;92.70;;;;;;4995628;28;20100;-58
2021/01/10 00:56:53;;;;;;;14.70;9.98;;;0.00;92.80;;;;;;4995170;28;20389;-57
2021/01/10 00:59:19;;;;;;;23.30;13.50;;;0.00;92.80;;;;;;4995392;28;20077;-58
2021/01/10 01:01:45;;;;;;;17.48;11.38;;;0.00;92.90;;;;;;4995130;28;20038;-58
2021/01/10 01:04:11;;;;;;;13.43;10.05;;;0.00;92.60;;;;;;4995314;28;20096;-57
2021/01/10 01:06:36;;;;;;;15.18;9.45;;;0.10;92.40;;;;;;4995035;28;20046;-57
2021/01/10 01:09:03;;;;;;;11.77;8.75;;;0.10;92.50;;;;;;4994705;28;20530;-58
2021/01/10 01:11:31;;;;;;;11.45;8.35;;;0.00;92.40;;;;;;4995222;28;20100;-58
2021/01/10 01:13:57;;;;;;;13.25;7.57;;;0.00;92.90;;;;;;4995069;28;20447;-58
2021/01/10 01:16:23;;;;;;;10.25;8.15;;;0.00;92.60;;;;;;4994853;28;20515;-57
2021/01/10 01:18:49;;;;;;;15.40;8.70;;;0.10;92.80;;;;;;4994666;28;20432;-58
2021/01/10 01:21:19;;;;;;;13.77;7.60;;;0.10;92.70;;;;;;4995063;28;20050;-58
2021/01/10 01:23:45;;;;;;;11.90;7.93;;;0.10;92.40;;;;;;4994900;28;20042;-57
2021/01/10 01:26:17;;;;;;;11.43;7.97;;;0.10;92.30;;;;;;4994994;28;20093;-58
2021/01/10 01:28:44;;;;;;;9.90;7.40;;;-0.10;92.20;;;;;;4994863;28;20042;-58
2021/01/10 01:31:11;;;;;;;12.18;7.95;;;-0.10;92.50;;;;;;4994530;28;20046;-58
2021/01/10 01:33:37;;;;;;;10.93;7.50;;;0.00;92.70;;;;;;4994766;28;20190;-58
2021/01/10 01:36:03;;;;;;;10.50;6.63;;;-0.10;92.60;;;;;;4994777;28;20484;-58
2021/01/10 01:38:29;;;;;;;11.32;8.15;;;-0.10;93.00;;;;;;4994701;28;20392;-57
2021/01/10 01:40:59;;;;;;;9.82;6.55;;;0.00;93.20;;;;;;4994665;28;20050;-58
2021/01/10 01:43:25;;;;;;;12.18;7.32;;;0.00;93.30;;;;;;4994645;28;20042;-58
2021/01/10 01:45:51;;;;;;;15.60;8.60;;;0.10;93.20;;;;;;4994545;28;20052;-58
2021/01/10 01:48:19;;;;;;;20.05;8.38;;;0.10;93.40;;;;;;4994341;28;20069;-57
2021/01/10 01:50:45;;;;;;;12.40;9.10;;;0.20;93.20;;;;;;4994614;28;20133;-57
2021/01/10 01:53:10;;;;;;;13.77;8.18;;;0.20;93.30;;;;;;4994231;28;20396;-58
2021/01/10 01:55:36;;;;;;;13.18;8.48;;;0.10;93.40;;;;;;4993414;28;20042;-58
2021/01/10 01:58:08;;;;;;;19.67;8.77;;;0.10;93.40;;;;;;4994289;28;20046;-58
2021/01/10 02:00:33;;;;;;;11.70;7.60;;;0.10;93.30;;;;;;4994409;28;20046;-58
2021/01/10 02:02:59;;;;;;;13.60;7.13;;;0.20;93.20;;;;;;4994214;28;20528;-58
2021/01/10 02:05:28;;;;;;;16.00;7.65;;;0.20;93.40;;;;;;4994444;28;20065;-58
2021/01/10 02:07:58;;;;;;;11.82;7.45;;;0.20;93.40;;;;;;4994209;28;20046;-57
2021/01/10 02:10:29;;;;;;;9.73;5.50;;;0.10;93.10;;;;;;4993918;28;20042;-58
2021/01/10 02:13:01;;;;;;;11.85;6.28;;;0.20;93.20;;;;;;4994323;28;20153;-57
2021/01/10 02:15:32;;;;;;;11.07;6.15;;;0.10;93.20;;;;;;4993706;28;20074;-58
2021/01/10 02:18:00;;;;;;;9.02;4.63;;;0.10;93.50;;;;;;4993829;28;20073;-57
2021/01/10 02:20:31;;;;;;;11.03;5.47;;;0.20;93.40;;;;;;4993885;28;20125;-57
2021/01/10 02:23:24;;;;;;;12.00;3.88;;;0.30;93.40;;;;;;4994205;28;20293;-58
2021/01/10 02:25:51;;;;;;;6.35;4.38;;;0.40;93.40;;;;;;4994157;28;20050;-58
2021/01/10 02:28:25;;;;;;;10.68;5.53;;;0.40;93.40;;;;;;4994151;28;20134;-58
2021/01/10 02:30:52;;;;;;;9.38;4.20;;;0.40;93.30;;;;;;4993815;28;20435;-57
2021/01/10 02:33:26;;;;;;;8.20;4.05;;;0.40;93.50;;;;;;4993794;28;20078;-58
2021/01/10 02:35:52;;;;;;;6.38;4.57;;;0.30;93.20;;;;;;4993724;28;20042;-58
2021/01/10 02:38:42;;;;;;;12.13;4.53;;;0.30;93.40;;;;;;4993584;28;20060;-57
2021/01/10 02:41:25;;;;;;;12.48;5.20;;;0.30;93.50;;;;;;4993931;28;20046;-58
2021/01/10 02:44:18;;;;;;;10.05;4.40;;;0.40;93.30;;;;;;4993237;28;20408;-58
2021/01/10 02:46:49;;;;;;;8.85;4.03;;;0.40;93.30;;;;;;4993724;28;20543;-57
2021/01/10 02:49:15;;;;;;;7.97;3.42;;;0.40;93.60;;;;;;4993643;28;20504;-58
2021/01/10 02:51:41;;;;;;;6.50;3.70;;;0.50;93.60;;;;;;4993304;28;20039;-57
2021/01/10 02:54:07;;;;;;;11.25;3.60;;;0.60;93.20;;;;;;4993694;28;20129;-58
2021/01/10 02:56:38;;;;;;;9.40;4.13;;;0.60;93.10;;;;;;4993220;28;20202;-58
2021/01/10 02:59:05;;;;;;;8.50;4.13;;;0.60;93.10;;;;;;4993814;28;20053;-58
2021/01/10 03:01:32;;;;;;;7.05;3.70;;;0.70;93.10;;;;;;4991996;28;20050;-58
2021/01/10 03:03:59;;;;;;;10.13;3.20;;;0.70;93.00;;;;;;4993740;28;20039;-57
2021/01/10 03:06:25;;;;;;;8.02;3.50;;;0.60;92.90;;;;;;4994019;28;20054;-58
2021/01/10 03:08:51;;;;;;;7.05;3.38;;;0.60;93.10;;;;;;4996213;28;20050;-57
2021/01/10 03:11:17;;;;;;;8.27;3.20;;;0.70;93.10;;;;;;4997431;28;20162;-58
2021/01/10 03:13:42;;;;;;;6.85;3.25;;;0.60;93.20;;;;;;4997365;28;20126;-58
2021/01/10 03:16:09;;;;;;;5.43;3.05;;;0.60;93.10;;;;;;4997277;28;20050;-58
2021/01/10 03:18:34;;;;;;;7.82;3.25;;;0.50;92.60;;;;;;4997312;28;20050;-58
2021/01/10 03:21:00;;;;;;;9.68;3.05;;;0.50;92.70;;;;;;4997135;28;20045;-58
2021/01/10 03:23:26;;;;;;;7.85;2.50;;;0.50;92.60;;;;;;4997376;28;20453;-58
2021/01/10 03:25:51;;;;;;;4.85;2.67;;;0.50;93.60;;;;;;4996872;28;20423;-57
2021/01/10 03:28:17;;;;;;;5.35;2.50;;;0.50;93.70;;;;;;4997422;28;20374;-58
2021/01/10 03:30:43;;;;;;;6.15;2.75;;;0.50;93.60;;;;;;4997095;28;20498;-58
2021/01/10 03:33:08;;;;;;;8.50;2.72;;;0.50;92.90;;;;;;4996953;28;20480;-57
2021/01/10 03:35:34;;;;;;;7.63;2.80;;;0.50;93.00;;;;;;4997160;28;20046;-58
2021/01/10 03:38:02;;;;;;;7.47;2.72;;;0.50;93.20;;;;;;4996909;28;20465;-57
2021/01/10 03:40:28;;;;;;;10.68;2.97;;;0.50;93.40;;;;;;4997203;28;20050;-58
2021/01/10 03:42:54;;;;;;;9.70;2.97;;;0.50;93.30;;;;;;4996563;28;20062;-58
2021/01/10 03:45:20;;;;;;;9.75;3.00;;;0.60;93.10;;;;;;4996660;28;20441;-58
2021/01/10 03:47:45;;;;;;;4.32;2.75;;;0.50;93.10;;;;;;4996782;28;20105;-58
2021/01/10 03:50:12;;;;;;;7.20;2.83;;;0.60;93.20;;;;;;4997264;28;20046;-57
2021/01/10 03:52:38;;;;;;;8.38;2.85;;;0.60;93.30;;;;;;4996755;28;20716;-58
2021/01/10 03:55:06;;;;;;;11.38;3.40;;;0.60;93.30;;;;;;4996748;28;20097;-57
2021/01/10 03:57:35;;;;;;;10.68;3.30;;;0.60;93.40;;;;;;4996602;28;20488;-57
2021/01/10 04:00:01;;;;;;;11.32;3.00;;;0.60;93.50;;;;;;4996662;28;20038;-58
2021/01/10 04:02:26;;;;;;;8.05;2.92;;;0.70;93.50;;;;;;4996451;28;20049;-57
2021/01/10 04:04:52;;;;;;;19.40;2.92;;;0.60;93.40;;;;;;4996457;28;20069;-57
2021/01/10 04:07:18;;;;;;;9.85;2.90;;;0.60;93.50;;;;;;4994766;28;20034;-58
2021/01/10 04:09:43;;;;;;;6.53;2.55;;;0.60;93.50;;;;;;4996281;28;20121;-58
2021/01/10 04:12:09;;;;;;;7.53;2.95;;;0.50;93.60;;;;;;4996460;28;20396;-57
2021/01/10 04:14:35;;;;;;;5.40;2.58;;;0.50;93.30;;;;;;4996367;28;20047;-58
2021/01/10 04:17:01;;;;;;;7.88;2.63;;;0.40;93.50;;;;;;4995478;28;20439;-58
2021/01/10 04:19:26;;;;;;;6.60;2.60;;;0.40;93.20;;;;;;4995791;28;20108;-58
2021/01/10 04:21:52;;;;;;;9.00;2.72;;;0.40;93.80;;;;;;4995720;28;20050;-57
2021/01/10 04:24:17;;;;;;;12.57;4.38;;;0.40;93.30;;;;;;4996155;28;20042;-58
2021/01/10 04:26:48;;;;;;;9.23;2.63;;;0.40;93.30;;;;;;4996012;28;20046;-58
2021/01/10 04:29:17;;;;;;;10.05;3.03;;;0.50;93.60;;;;;;4996154;28;20413;-58
2021/01/10 04:31:43;;;;;;;7.75;2.97;;;0.50;93.40;;;;;;4996231;28;20069;-58
2021/01/10 04:34:08;;;;;;;6.72;2.90;;;0.50;93.30;;;;;;4995788;28;20125;-58
2021/01/10 04:36:34;;;;;;;10.98;2.60;;;0.50;93.40;;;;;;4995805;28;20404;-58
2021/01/10 04:39:00;;;;;;;8.13;2.55;;;0.50;93.40;;;;;;4995903;28;20046;-58
2021/01/10 04:41:26;;;;;;;6.50;2.63;;;0.60;93.40;;;;;;4995914;28;20100;-58
2021/01/10 04:43:55;;;;;;;6.75;2.83;;;0.60;93.40;;;;;;4995609;28;20046;-58
2021/01/10 04:46:25;;;;;;;7.13;2.63;;;0.60;93.30;;;;;;4995659;28;20093;-58
2021/01/10 04:48:51;;;;;;;7.43;2.53;;;0.60;93.20;;;;;;4995825;28;20118;-58
2021/01/10 04:51:19;;;;;;;6.15;2.30;;;0.60;93.10;;;;;;4995343;28;20042;-58
2021/01/10 04:53:53;;;;;;;13.20;2.42;;;0.50;93.20;;;;;;4995684;28;20391;-57
2021/01/10 04:56:19;;;;;;;6.72;2.50;;;0.50;93.10;;;;;;4995828;28;20049;-58
2021/01/10 04:58:54;;;;;;;8.13;2.65;;;0.40;93.00;;;;;;4995475;28;20043;-58
2021/01/10 05:01:24;;;;;;;7.85;2.70;;;0.40;93.20;;;;;;4995474;28;20042;-58
2021/01/10 05:03:53;;;;;;;6.75;3.00;;;0.50;93.40;;;;;;4995469;28;20437;-57
2021/01/10 05:06:19;;;;;;;9.93;2.65;;;0.50;93.40;;;;;;4995203;28;20050;-57
2021/01/10 05:08:45;;;;;;;7.05;2.72;;;0.50;93.40;;;;;;4995432;28;20088;-58
2021/01/10 05:11:11;;;;;;;8.93;3.00;;;0.50;93.20;;;;;;4995088;28;20472;-57
2021/01/10 05:13:37;;;;;;;8.80;2.45;;;0.50;93.10;;;;;;4995595;28;20362;-57
2021/01/10 05:16:05;;;;;;;11.27;2.50;;;0.40;92.90;;;;;;4994845;28;20042;-58
2021/01/10 05:18:32;;;;;;;4.72;2.63;;;0.40;93.10;;;;;;4994596;28;20451;-57
2021/01/10 05:20:58;;;;;;;7.97;3.00;;;0.40;93.10;;;;;;4994838;28;20472;-57
2021/01/10 05:23:25;;;;;;;8.45;3.10;;;0.40;93.00;;;;;;4995135;28;20046;-58
2021/01/10 05:26:05;;;;;;;11.95;2.70;;;0.50;93.20;;;;;;4994956;28;20049;-57
2021/01/10 05:28:31;;;;;;;9.48;3.25;;;0.50;93.30;;;;;;4994869;28;20116;-57
2021/01/10 05:31:00;;;;;;;8.70;3.13;;;0.50;93.20;;;;;;4994010;28;20477;-57
2021/01/10 05:33:26;;;;;;;8.53;3.43;;;0.50;93.10;;;;;;4994971;28;20147;-58
2021/01/10 05:35:54;;;;;;;6.10;3.40;;;0.50;93.20;;;;;;4994978;28;20532;-58
2021/01/10 05:38:26;;;;;;;6.63;3.30;;;0.50;93.10;;;;;;4994894;28;20129;-58
2021/01/10 05:40:54;;;;;;;9.77;3.78;;;0.50;93.10;;;;;;4994682;28;20042;-57
2021/01/10 05:43:20;;;;;;;9.90;3.35;;;0.40;93.10;;;;;;4994770;28;20046;-58
2021/01/10 05:45:45;;;;;;;8.05;3.25;;;0.40;93.20;;;;;;4994287;28;20042;-58
2021/01/10 05:48:13;;;;;;;12.95;3.75;;;0.40;93.20;;;;;;4994719;28;20389;-58
2021/01/10 05:50:50;;;;;;;11.38;3.08;;;0.50;93.20;;;;;;4994009;28;20552;-58
2021/01/10 05:53:24;;;;;;;5.90;3.00;;;0.40;93.20;;;;;;4982513;28;20050;-57
2021/01/10 05:56:00;;;;;;;11.50;4.00;;;0.40;93.10;;;;;;4994527;28;20057;-58
2021/01/10 05:58:28;;;;;;;8.45;3.83;;;0.40;93.10;;;;;;4994627;28;20428;-57
2021/01/10 06:00:54;;;;;;;8.30;3.38;;;0.40;93.10;;;;;;4994269;28;20042;-58
2021/01/10 06:03:22;;;;;;;8.30;3.15;;;0.40;93.00;;;;;;4994353;28;20042;-58
2021/01/10 06:05:58;;;;;;;9.02;3.60;;;0.40;93.10;;;;;;4994370;28;20058;-57
2021/01/10 06:08:29;;;;;;;6.55;3.38;;;0.40;93.00;;;;;;4994408;28;20042;-58
2021/01/10 06:11:14;;;;;;;8.27;3.30;;;0.40;93.00;;;;;;4993996;28;20401;-58
2021/01/10 06:14:00;;;;;;;8.63;3.33;;;0.40;93.10;;;;;;4994267;28;20049;-57
2021/01/10 06:16:29;;;;;;;10.15;3.90;;;0.40;92.90;;;;;;4994055;28;20129;-57
2021/01/10 06:18:58;;;;;;;13.40;4.50;;;0.40;93.10;;;;;;4993606;28;20112;-58
2021/01/10 06:21:29;;;;;;;6.95;4.72;;;0.40;93.10;;;;;;4993929;28;20042;-57
2021/01/10 06:24:05;;;;;;;15.77;7.85;;;0.30;93.20;;;;;;4993647;28;20070;-58
2021/01/10 06:26:34;;;;;;;15.13;7.38;;;0.40;93.10;;;;;;4993970;28;20043;-57
2021/01/10 06:29:03;;;;;;;8.63;5.93;;;0.30;93.20;;;;;;4993922;28;20038;-58
2021/01/10 06:31:32;;;;;;;9.77;5.30;;;0.30;93.20;;;;;;4994194;28;20046;-57
2021/01/10 06:34:06;;;;;;;9.05;5.07;;;0.30;93.20;;;;;;4993796;28;20100;-58
2021/01/10 06:36:35;;;;;;;10.82;4.18;;;0.30;93.20;;;;;;4994314;28;20077;-58
2021/01/10 06:39:04;;;;;;;7.78;4.03;;;0.30;93.20;;;;;;4993721;28;20129;-57
2021/01/10 06:42:08;;;;;;;7.32;3.22;;;0.30;93.30;;;;;;4993737;28;20399;-57
2021/01/10 06:44:42;;;;;;;6.60;4.20;;;0.30;93.30;;;;;;4993682;28;20042;-58
2021/01/10 06:47:16;;;;;;;11.77;3.75;;;0.30;93.50;;;;;;4993595;28;20509;-58
2021/01/10 06:49:42;;;;;;;11.15;3.85;;;0.30;93.40;;;;;;4993556;28;20046;-57
2021/01/10 06:52:10;;;;;;;5.88;3.42;;;0.20;93.40;;;;;;4993709;28;20038;-58
2021/01/10 06:54:41;;;;;;;5.88;3.10;;;0.30;93.80;;;;;;4993314;28;20544;-57
2021/01/10 06:57:07;;;;;;;14.25;3.40;;;0.20;93.40;;;;;;4993776;28;20054;-58
2021/01/10 06:59:59;;;;;;;8.00;3.40;;;0.20;93.30;;;;;;4993675;28;20053;-57
2021/01/10 07:02:26;;;;;;;6.78;3.17;;;0.10;93.50;;;;;;4993579;28;20046;-58
2021/01/10 07:04:54;;;;;;;9.35;3.53;;;0.10;93.50;;;;;;4993433;28;20042;-58
2021/01/10 07:07:39;;;;;;;10.60;4.13;;;0.20;93.60;;;;;;4993307;28;20515;-58
2021/01/10 07:10:11;;;;;;;9.85;3.55;;;0.20;93.60;;;;;;4984896;28;20477;-57
2021/01/10 07:12:37;;;;;;;15.57;4.57;;;0.20;93.80;;;;;;4993237;28;20564;-57
2021/01/10 07:15:17;;;;;;;5.85;3.55;;;0.20;93.60;;;;;;4993546;28;20081;-58
2021/01/10 07:18:03;;;;;;;8.07;3.45;;;0.20;93.70;;;;;;4993117;28;20096;-57
2021/01/10 07:20:40;;;;;;;13.30;4.13;;;0.30;93.80;;;;;;4993335;28;20069;-58
2021/01/10 07:23:29;;;;;;;14.18;3.90;;;0.30;93.90;;;;;;4993664;28;20057;-58
2021/01/10 07:25:56;;;;;;;7.03;3.97;;;0.30;93.70;;;;;;4980292;28;20053;-58
2021/01/10 07:28:40;;;;;;;8.73;3.70;;;0.40;93.60;;;;;;4993559;28;20053;-58
2021/01/10 07:31:26;;;;;;;10.90;4.40;;;0.40;93.70;;;;;;4980586;28;20042;-58
2021/01/10 07:34:08;;;;;;;9.82;4.25;;;0.50;93.70;;;;;;4992849;28;20054;-57
2021/01/10 07:36:46;;;;;;;9.55;4.50;;;0.50;93.80;;;;;;4993177;28;20045;-58
2021/01/10 07:39:12;;;;;;;7.20;3.80;;;0.60;93.70;;;;;;4993125;28;20034;-57
2021/01/10 07:41:38;;;;;;;7.45;3.60;;;0.50;93.70;;;;;;4993498;28;20057;-58
2021/01/10 07:44:04;;;;;;;9.07;3.85;;;0.60;93.80;;;;;;4993300;28;20540;-58
2021/01/10 07:46:52;;;;;;;16.13;4.28;;;0.60;93.60;;;;;;4993313;28;20405;-58
2021/01/10 07:49:56;;;;;;;9.93;3.80;;;0.70;93.80;;;;;;4992930;28;20058;-57
2021/01/10 07:52:56;;;;;;;10.30;4.22;;;0.70;93.70;;;;;;4993463;28;20073;-58
2021/01/10 07:55:24;;;;;;;11.43;4.03;;;0.80;93.70;;;;;;4996772;28;20061;-57
2021/01/10 07:58:00;;;;;;;11.07;3.95;;;0.70;93.60;;;;;;4996519;28;20081;-57
2021/01/10 08:00:28;;;;;;;9.95;4.60;;;0.80;93.60;;;;;;4996682;28;20405;-57
2021/01/10 08:03:01;;;;;;;9.57;4.40;;;0.70;93.60;;;;;;4996485;28;20050;-58
2021/01/10 08:05:36;;;;;;;9.60;4.70;;;0.80;93.80;;;;;;4996586;28;20042;-57
2021/01/10 08:08:26;;;;;;;11.48;5.13;;;0.80;93.80;;;;;;4996232;28;20492;-57
2021/01/10 08:10:55;;;;;;;12.40;5.32;;;0.80;93.70;;;;;;4994067;28;20049;-58
2021/01/10 08:13:29;;;;;;;;;;;0.90;93.90;;;;;;4994336;28;20121;-57
2021/01/10 08:16:02;;;;;;;10.27;4.93;;;0.90;94.20;;;;;;4993692;28;20033;-57
2021/01/10 08:18:42;;;;;;;11.55;4.95;;;0.90;94.00;;;;;;4992761;28;20062;-58
2021/01/10 08:21:12;;;;;;;11.77;6.00;;;0.90;94.10;;;;;;4993276;28;20772;-58
2021/01/10 08:23:39;;;;;;;10.90;4.80;;;1.00;94.20;;;;;;4993399;28;20044;-57
2021/01/10 08:26:18;;;;;;;11.95;5.10;;;1.00;94.20;;;;;;4977091;28;20046;-58
2021/01/10 08:28:46;;;;;;;8.23;4.97;;;1.00;94.20;;;;;;4993217;28;20069;-57
2021/01/10 08:31:14;;;;;;;11.13;5.60;;;1.10;94.00;;;;;;4993136;28;20039;-57
2021/01/10 08:33:41;;;;;;;14.32;5.57;;;1.10;94.10;;;;;;4993121;28;20534;-58
2021/01/10 08:36:12;;;;;;;16.08;5.78;;;1.20;93.90;;;;;;4993058;28;20116;-58
2021/01/10 08:38:52;;;;;;;16.08;5.88;;;1.20;93.90;;;;;;4993181;28;20053;-58
2021/01/10 08:41:30;;;;;;;;;;;1.30;93.80;;;;;;4993388;28;20045;-58
2021/01/10 08:44:01;;;;;;;14.20;5.82;;;1.30;93.60;;;;;;4992749;28;20299;-58
2021/01/10 08:46:34;;;;;;;11.10;5.85;;;1.30;93.50;;;;;;4993120;28;20053;-58
2021/01/10 08:49:00;;;;;;;12.98;5.68;;;1.30;93.50;;;;;;4993932;28;20038;-58
2021/01/10 08:51:33;;;;;;;13.52;6.05;;;1.30;93.60;;;;;;4995317;28;20472;-57
2021/01/10 08:54:01;;;;;;;11.63;5.47;;;1.30;93.50;;;;;;4995642;28;20097;-58
2021/01/10 08:56:29;;;;;;;9.55;5.32;;;1.30;93.60;;;;;;4995410;28;20050;-58
2021/01/10 08:58:56;;;;;;;12.57;5.97;;;1.30;93.60;;;;;;4994893;28;20092;-57
2021/01/10 09:01:23;;;;;;;11.10;5.95;;;1.30;93.50;;;;;;4990965;28;20174;-58
2021/01/10 09:04:08;;;;;;;14.95;5.80;;;1.40;93.40;;;;;;4995541;28;20065;-57
2021/01/10 09:06:34;;;;;;;11.82;5.68;;;1.50;93.40;;;;;;4995079;28;20054;-58
2021/01/10 09:09:06;;;;;;;11.63;5.68;;;1.40;93.30;;;;;;4995418;28;20043;-57
2021/01/10 09:11:36;;;;;;;17.52;6.70;;;1.50;93.40;;;;;;4995274;28;20049;-57
2021/01/10 09:14:03;;;;;;;9.73;5.65;;;1.50;93.40;;;;;;4995848;28;20050;-58
2021/01/10 09:16:35;;;;;;;12.45;5.32;;;1.50;93.30;;;;;;4994912;28;20424;-57
2021/01/10 09:19:01;;;;;;;11.90;5.82;;;1.50;93.30;;;;;;4994978;28;20070;-57
2021/01/10 09:21:28;;;;;;;13.45;6.03;;;1.50;93.40;;;;;;4994847;28;20046;-57
2021/01/10 09:23:56;;;;;;;9.38;5.32;;;1.60;93.30;;;;;;4994757;28;20045;-58
2021/01/10 09:26:30;;;;;;;11.35;6.28;;;1.60;93.40;;;;;;4995214;28;20042;-58
2021/01/10 09:29:00;;;;;;;12.93;6.25;;;1.70;93.20;;;;;;4994674;28;20038;-57
2021/01/10 09:31:41;;;;;;;17.52;7.78;;;1.80;93.10;;;;;;4994712;28;20053;-58
2021/01/10 09:34:07;;;;;;;12.73;6.82;;;1.90;93.10;;;;;;4991298;28;20495;-57
2021/01/10 09:36:33;;;;;;;13.23;6.90;;;2.00;93.00;;;;;;4994450;28;20049;-58
2021/01/10 09:38:59;;;;;;;12.68;7.30;;;2.10;92.70;;;;;;4993775;28;20042;-58
2021/01/10 09:41:26;;;;;;;18.15;7.60;;;2.20;92.60;;;;;;4993814;28;20049;-58
2021/01/10 09:43:53;;;;;;;19.00;7.38;;;2.30;92.60;;;;;;4994688;28;20049;-58
2021/01/10 09:46:35;;;;;;;16.25;7.25;;;2.30;92.40;;;;;;4991662;28;20054;-58
2021/01/10 09:49:18;;;;;;;11.85;7.60;;;2.30;92.50;;;;;;4992564;28;20042;-58
2021/01/10 09:51:47;;;;;;;12.77;6.90;;;2.40;92.30;;;;;;4991382;28;20038;-58
2021/01/10 09:54:23;;;;;;;10.73;6.50;;;2.30;92.70;;;;;;4992413;28;20046;-58
2021/01/10 09:56:54;;;;;;;12.13;6.95;;;2.40;92.50;;;;;;4993897;28;20054;-57
2021/01/10 09:59:34;;;;;;;8.98;6.50;;;2.40;92.50;;;;;;4983360;28;20100;-58
2021/01/10 10:02:06;;;;;;;13.98;6.80;;;2.30;92.10;;;;;;4982775;28;20042;-58
2021/01/10 10:04:31;;;;;;;14.23;6.93;;;2.40;92.30;;;;;;4993543;28;20392;-58
2021/01/10 10:06:57;;;;;;;16.08;6.93;;;2.40;92.60;;;;;;4993634;28;20113;-58
2021/01/10 10:09:23;;;;;;;11.50;7.03;;;2.40;92.80;;;;;;4993698;28;20042;-58
2021/01/10 10:11:49;;;;;;;13.60;6.90;;;2.40;92.80;;;;;;4988862;28;20129;-58
2021/01/10 10:14:15;;;;;;;14.70;7.43;;;2.40;92.70;;;;;;4986480;28;20073;-58
2021/01/10 10:16:41;;;;;;;13.25;7.15;;;2.40;92.90;;;;;;4993229;28;20077;-58
2021/01/10 10:19:08;;;;;;;12.63;7.13;;;2.40;93.00;;;;;;4993813;28;20065;-58
2021/01/10 10:21:34;;;;;;;13.25;6.80;;;2.40;93.00;;;;;;4993810;28;20046;-58
2021/01/10 10:24:00;;;;;;;13.45;6.82;;;2.40;92.80;;;;;;4993570;28;20097;-57
2021/01/10 10:26:26;;;;;;;14.52;6.65;;;2.40;92.50;;;;;;4993626;28;20405;-58
2021/01/10 10:28:51;;;;;;;13.95;7.03;;;2.50;92.40;;;;;;5008591;28;20049;-58
2021/01/10 10:31:17;;;;;;;10.32;6.28;;;2.50;92.30;;;;;;4989791;28;20031;-58
2021/01/10 10:33:43;;;;;;;12.93;6.53;;;2.50;92.40;;;;;;4978740;28;20042;-58
2021/01/10 10:36:09;;;;;;;13.93;6.63;;;2.50;92.40;;;;;;4977666;28;20050;-58
2021/01/10 10:38:35;;;;;;;9.63;6.50;;;2.50;92.40;;;;;;4975052;28;20042;-58
2021/01/10 10:41:04;;;;;;;9.77;6.15;;;2.50;92.30;;;;;;4975767;28;20038;-58
2021/01/10 10:43:29;;;;;;;10.70;6.93;;;2.50;92.30;;;;;;4976424;28;20053;-58
2021/01/10 10:45:55;;;;;;;12.38;6.63;;;2.50;92.50;;;;;;4978087;28;20043;-58
2021/01/10 10:48:21;;;;;;;20.23;7.35;;;2.50;92.30;;;;;;4977116;28;20062;-58
2021/01/10 10:50:49;;;;;;;18.17;7.35;;;2.60;92.30;;;;;;4976836;28;20397;-58
2021/01/10 10:53:14;;;;;;;18.00;7.05;;;2.50;92.40;;;;;;4974601;28;20047;-58
2021/01/10 10:55:40;;;;;;;13.10;7.18;;;2.60;92.60;;;;;;4974884;28;20070;-58
2021/01/10 10:58:07;;;;;;;13.07;7.88;;;2.60;92.80;;;;;;4992814;28;20061;-58
2021/01/10 11:00:35;;;;;;;14.68;7.03;;;2.60;92.50;;;;;;4993524;28;20377;-58
2021/01/10 11:03:01;;;;;;;13.80;7.75;;;2.60;92.60;;;;;;4992917;28;20476;-58
2021/01/10 11:05:26;;;;;;;18.52;7.75;;;2.70;92.60;;;;;;4993342;28;20121;-58
2021/01/10 11:07:52;;;;;;;15.02;7.25;;;2.60;92.60;;;;;;4993286;28;20476;-58
2021/01/10 11:10:18;;;;;;;15.00;7.25;;;2.70;92.40;;;;;;4993370;28;20066;-58
2021/01/10 11:12:43;;;;;;;16.83;7.25;;;2.70;92.40;;;;;;4992914;28;20089;-58
2021/01/10 11:15:09;;;;;;;18.05;8.23;;;2.70;92.20;;;;;;4993365;28;20053;-58
2021/01/10 11:17:37;;;;;;;16.98;8.05;;;2.70;92.30;;;;;;4993122;28;20046;-58
2021/01/10 11:20:04;;;;;;;13.73;7.43;;;2.70;92.50;;;;;;4993023;28;20050;-58
2021/01/10 11:22:34;;;;;;;13.85;8.10;;;2.70;92.30;;;;;;4992930;28;20519;-58
2021/01/10 11:25:02;;;;;;;15.13;7.93;;;2.80;92.10;;;;;;4992811;28;20061;-58
2021/01/10 11:27:28;;;;;;;16.05;8.52;;;2.70;92.60;;;;;;4993656;28;20089;-58
2021/01/10 11:29:53;;;;;;;12.68;7.90;;;2.70;92.60;;;;;;4997040;28;20046;-58
2021/01/10 11:32:19;;;;;;;14.50;8.63;;;2.80;92.40;;;;;;4996615;28;20046;-58
2021/01/10 11:34:44;;;;;;;14.75;8.38;;;2.70;92.40;;;;;;4996889;28;20129;-58
2021/01/10 11:37:12;;;;;;;16.70;9.43;;;2.80;92.20;;;;;;4996823;28;20053;-58
2021/01/10 11:39:37;;;;;;;15.70;9.13;;;2.80;92.50;;;;;;4996711;28;20064;-58
2021/01/10 11:42:03;;;;;;;15.20;8.40;;;2.80;92.00;;;;;;4996616;28;20042;-58
2021/01/10 11:44:29;;;;;;;18.70;9.00;;;2.90;91.90;;;;;;4996692;28;20053;-58
2021/01/10 11:46:55;;;;;;;13.35;8.60;;;2.90;92.10;;;;;;4996641;28;20504;-58
2021/01/10 11:49:21;;;;;;;18.33;9.13;;;2.90;92.10;;;;;;4997025;28;20058;-58
2021/01/10 11:51:48;;;;;;;22.27;10.05;;;3.00;92.10;;;;;;4997023;28;20045;-58
2021/01/10 11:54:14;;;;;;;16.88;9.73;;;3.00;92.30;;;;;;4996906;28;20054;-58
2021/01/10 11:56:41;;;;;;;20.00;10.27;;;3.00;91.80;;;;;;4996858;28;20101;-58
2021/01/10 11:59:09;;;;;;;16.90;11.02;;;3.10;92.10;;;;;;4996660;28;20050;-58
2021/01/10 12:01:36;;;;;;;19.70;10.55;;;3.10;92.10;;;;;;4996255;28;20044;-58
2021/01/10 12:04:03;;;;;;;19.15;12.25;;;3.10;92.50;;;;;;4996729;28;20053;-58
2021/01/10 12:06:28;;;;;;;23.00;12.77;;;3.10;93.00;;;;;;4996464;28;20485;-57
2021/01/10 12:08:55;;;;;;;21.42;13.50;;;3.10;93.50;;;;;;4996120;28;20528;-58
2021/01/10 12:11:21;;;;;;;20.83;12.95;;;3.10;93.40;;;;;;4996467;28;20042;-58
2021/01/10 12:13:47;;;;;;;22.55;12.93;;;3.10;93.50;;;;;;4996419;28;20038;-58
2021/01/10 12:16:14;;;;;;;25.42;14.20;;;3.10;93.50;;;;;;4995879;28;20484;-58
2021/01/10 12:18:41;;;;;;;22.73;14.07;;;3.10;93.70;;;;;;4995776;28;20054;-58
2021/01/10 12:21:10;;;;;;;24.75;14.52;;;3.20;93.40;;;;;;4996300;28;20392;-58
2021/01/10 12:23:38;;;;;;;24.20;14.63;;;3.20;93.60;;;;;;4996074;28;20046;-58
2021/01/10 12:26:09;;;;;;;25.70;14.98;;;3.20;93.60;;;;;;4996139;28;20397;-58
2021/01/10 12:28:36;;;;;;;23.25;14.48;;;3.20;93.80;;;;;;4995442;28;20042;-58
2021/01/10 12:31:03;;;;;;;27.55;15.55;;;3.20;93.60;;;;;;4995685;28;20058;-58
2021/01/10 12:33:29;;;;;;;28.25;16.83;;;3.20;93.80;;;;;;4995663;28;20050;-58
2021/01/10 12:35:55;;;;;;;27.23;14.95;;;3.20;93.80;;;;;;4995828;28;20042;-58
2021/01/10 12:38:20;;;;;;;29.13;14.98;;;3.30;93.70;;;;;;4995454;28;20046;-58
2021/01/10 12:40:46;;;;;;;28.75;16.67;;;3.30;93.80;;;;;;4995743;28;20058;-58
2021/01/10 12:43:12;;;;;;;30.40;16.30;;;3.20;94.10;;;;;;4995994;28;20392;-58
2021/01/10 12:45:38;;;;;;;32.33;17.88;;;3.30;94.20;;;;;;4995048;28;20047;-58
2021/01/10 12:48:04;;;;;;;31.92;17.67;;;3.30;94.30;;;;;;4995733;28;20050;-58
2021/01/10 12:50:29;;;;;;;31.20;16.77;;;3.40;94.10;;;;;;4995936;28;20065;-57
2021/01/10 12:52:55;;;;;;;32.17;16.92;;;3.40;94.50;;;;;;4995525;28;20385;-58
2021/01/10 12:55:21;;;;;;;24.55;17.02;;;3.30;94.60;;;;;;4995245;28;20055;-57
2021/01/10 12:57:47;;;;;;;30.65;16.38;;;3.30;94.60;;;;;;4994965;28;20093;-58
2021/01/10 13:00:14;;;;;;;26.77;17.13;;;3.30;94.60;;;;;;4995143;28;20560;-57